Time;durP1;ratioP1;P1;durP2;ratioP2;P2;SDS_P1;SDS_P2;PMS_P1;PMS_P2;Temp;Humidity;BMP_temperature;BMP_pressure;BME280_temperature;BME280_humidity;BME280_pressure;Samples;Min_cycle;Max_cycle;Signal;HPM_P1;HPM_P2
2023/10/01 00:00:27;;;;;;;12.38;4.70;;;14.40;88.30;;;;;;5073399;28;20033;-46
2023/10/01 00:03:00;;;;;;;12.60;5.20;;;14.40;88.20;;;;;;5078608;28;20028;-46
2023/10/01 00:05:27;;;;;;;8.48;4.70;;;14.40;88.30;;;;;;5073683;28;20028;-50
2023/10/01 00:07:55;;;;;;;8.38;5.22;;;14.40;88.30;;;;;;5073427;28;20062;-50
2023/10/01 00:10:25;;;;;;;9.52;4.88;;;14.40;88.30;;;;;;5073815;28;20024;-47
2023/10/01 00:12:54;;;;;;;9.90;4.55;;;14.40;88.40;;;;;;5073678;28;20505;-49
2023/10/01 00:15:24;;;;;;;7.65;4.85;;;14.40;88.40;;;;;;5073475;28;20055;-49
2023/10/01 00:18:01;;;;;;;10.20;5.13;;;14.40;88.50;;;;;;5056068;28;20025;-50
2023/10/01 00:20:29;;;;;;;16.70;5.15;;;14.30;88.50;;;;;;5073396;28;20021;-49
2023/10/01 00:23:02;;;;;;;10.98;5.93;;;14.40;88.60;;;;;;5073726;28;20174;-47
2023/10/01 00:25:30;;;;;;;10.77;4.68;;;14.30;88.70;;;;;;5041469;28;20041;-46
2023/10/01 00:27:58;;;;;;;13.70;5.43;;;14.30;88.80;;;;;;5073291;28;20112;-47
2023/10/01 00:30:31;;;;;;;12.20;5.43;;;14.30;88.80;;;;;;5073545;28;20025;-47
2023/10/01 00:33:10;;;;;;;12.73;5.95;;;14.30;88.90;;;;;;5073522;28;20370;-47
2023/10/01 00:35:40;;;;;;;;;;;14.30;88.90;;;;;;5073259;28;20170;-48
2023/10/01 00:38:08;;;;;;;9.48;5.70;;;14.40;88.90;;;;;;5073278;28;20369;-46
2023/10/01 00:40:42;;;;;;;10.60;6.47;;;14.30;88.90;;;;;;5073284;28;20040;-48
2023/10/01 00:43:11;;;;;;;13.27;6.05;;;14.30;88.90;;;;;;5055998;28;20387;-48
2023/10/01 00:45:39;;;;;;;8.77;6.18;;;14.30;89.00;;;;;;5073016;28;20029;-51
2023/10/01 00:48:09;;;;;;;12.45;6.25;;;14.30;89.20;;;;;;5073535;28;20361;-48
2023/10/01 00:50:36;;;;;;;9.80;6.18;;;14.30;89.20;;;;;;5073133;28;20492;-48
2023/10/01 00:53:04;;;;;;;15.27;7.25;;;14.30;89.30;;;;;;5072896;28;20017;-51
2023/10/01 00:55:30;;;;;;;12.93;6.53;;;14.30;89.30;;;;;;5071853;28;20087;-47
2023/10/01 00:57:58;;;;;;;11.02;6.57;;;14.30;89.30;;;;;;5071810;28;20409;-47
2023/10/01 01:00:28;;;;;;;11.82;7.07;;;14.30;89.30;;;;;;5072770;28;20033;-47
2023/10/01 01:03:38;;;;;;;14.48;7.32;;;14.30;89.40;;;;;;5072577;28;20487;-48
2023/10/01 01:08:46;;;;;;;13.30;7.32;;;14.20;89.40;;;;;;5073524;28;20120;-48
2023/10/01 01:11:26;;;;;;;11.25;7.20;;;14.30;89.50;;;;;;5058501;28;20099;-50
2023/10/01 01:13:58;;;;;;;16.48;7.82;;;14.20;89.50;;;;;;5072526;28;20033;-47
2023/10/01 01:16:26;;;;;;;11.50;6.65;;;14.20;89.50;;;;;;5071328;28;20041;-46
2023/10/01 01:18:54;;;;;;;19.05;8.25;;;14.20;89.60;;;;;;5071691;28;20059;-48
2023/10/01 01:21:23;;;;;;;8.88;5.93;;;14.20;89.50;;;;;;5073019;28;20040;-47
2023/10/01 01:23:57;;;;;;;10.73;6.47;;;14.20;89.60;;;;;;5072835;28;20044;-50
2023/10/01 01:26:23;;;;;;;11.27;6.35;;;14.20;89.70;;;;;;5073178;28;20020;-51
2023/10/01 01:28:53;;;;;;;13.02;6.75;;;14.20;89.70;;;;;;5038281;28;20047;-48
2023/10/01 01:31:26;;;;;;;14.00;7.30;;;14.20;89.60;;;;;;5072627;28;20374;-49
2023/10/01 01:33:53;;;;;;;15.07;7.05;;;14.20;89.70;;;;;;5072847;28;20036;-47
2023/10/01 01:36:20;;;;;;;12.32;6.80;;;14.20;89.60;;;;;;5072753;28;20024;-49
2023/10/01 01:39:27;;;;;;;12.80;6.75;;;14.20;89.50;;;;;;5054956;28;20028;-47
2023/10/01 01:41:57;;;;;;;12.43;7.03;;;14.20;89.50;;;;;;5033251;28;20063;-47
2023/10/01 01:44:26;;;;;;;16.92;7.40;;;14.20;89.50;;;;;;5075188;28;20044;-47
2023/10/01 01:47:00;;;;;;;14.93;7.10;;;14.20;89.50;;;;;;5076880;28;20071;-49
2023/10/01 01:49:26;;;;;;;12.55;6.05;;;14.20;89.60;;;;;;5076502;28;20082;-51
2023/10/01 01:52:03;;;;;;;12.60;6.13;;;14.20;89.60;;;;;;5076590;28;20029;-46
2023/10/01 01:54:37;;;;;;;11.13;7.60;;;14.20;89.50;;;;;;5058003;28;20044;-49
2023/10/01 01:57:13;;;;;;;12.70;6.30;;;14.20;89.60;;;;;;5059022;28;20354;-46
2023/10/01 01:59:41;;;;;;;10.95;6.22;;;14.20;89.60;;;;;;5076272;28;20036;-48
2023/10/01 02:02:13;;;;;;;15.35;7.72;;;14.20;89.60;;;;;;5076055;28;20025;-48
2023/10/01 02:05:09;;;;;;;11.55;6.68;;;14.10;89.60;;;;;;5075818;28;20029;-49
2023/10/01 02:07:50;;;;;;;13.35;8.02;;;14.10;89.60;;;;;;5076186;28;20124;-48
2023/10/01 02:10:16;;;;;;;10.70;6.50;;;14.10;89.70;;;;;;5072200;28;20055;-50
2023/10/01 02:12:43;;;;;;;11.77;7.40;;;14.10;89.70;;;;;;5096172;28;20051;-47
2023/10/01 02:15:14;;;;;;;12.25;7.72;;;14.00;89.80;;;;;;5090001;28;20021;-49
2023/10/01 02:17:43;;;;;;;16.60;8.50;;;14.00;89.90;;;;;;5076049;28;20058;-47
2023/10/01 02:20:21;;;;;;;9.68;7.38;;;13.90;89.80;;;;;;5075735;28;20449;-48
2023/10/01 02:22:51;;;;;;;16.25;8.38;;;13.90;90.00;;;;;;5075608;28;20024;-49
2023/10/01 02:25:18;;;;;;;;;;;14.00;90.20;;;;;;5076193;28;20028;-50
2023/10/01 02:27:49;;;;;;;15.02;8.80;;;14.00;90.20;;;;;;5075898;28;19908;-49
2023/10/01 02:30:16;;;;;;;15.07;9.38;;;13.90;90.30;;;;;;5075478;28;20029;-49
2023/10/01 02:33:16;;;;;;;13.73;9.18;;;14.00;90.40;;;;;;5075599;28;20025;-47
2023/10/01 02:35:40;;;;;;;19.95;9.77;;;14.00;90.40;;;;;;5075273;28;20024;-49
2023/10/01 02:40:58;;;;;;;12.82;8.82;;;14.00;90.60;;;;;;5074272;28;20373;-47
2023/10/01 02:43:41;;;;;;;12.07;9.02;;;14.00;90.60;;;;;;5063697;28;20045;-48
2023/10/01 02:46:11;;;;;;;14.52;9.32;;;14.00;90.60;;;;;;5054543;28;20033;-49
2023/10/01 02:48:44;;;;;;;15.20;8.90;;;14.00;90.70;;;;;;5053085;28;20503;-48
2023/10/01 02:51:16;;;;;;;13.90;8.65;;;14.00;90.70;;;;;;5051244;28;20021;-48
2023/10/01 02:57:12;;;;;;;13.80;8.70;;;14.00;90.70;;;;;;5070403;28;20039;-47
2023/10/01 03:02:31;;;;;;;11.50;9.30;;;14.10;90.80;;;;;;5067723;28;20461;-51
2023/10/01 03:05:06;;;;;;;11.00;8.60;;;14.10;90.80;;;;;;5053478;28;20032;-46
2023/10/01 03:07:38;;;;;;;11.50;8.98;;;14.10;90.80;;;;;;5036831;28;20032;-47
2023/10/01 03:10:24;;;;;;;13.98;10.52;;;14.10;90.80;;;;;;5054303;28;20036;-47
2023/10/01 03:12:59;;;;;;;11.68;8.75;;;14.10;90.80;;;;;;5072070;28;20107;-47
2023/10/01 03:15:41;;;;;;;13.32;8.55;;;14.10;90.80;;;;;;5073689;28;20021;-50
2023/10/01 03:18:34;;;;;;;14.38;10.68;;;14.10;90.80;;;;;;5073858;28;20021;-49
2023/10/01 03:31:24;;;;;;;16.45;9.48;;;14.00;90.80;;;;;;5056499;28;20044;-50
2023/10/01 03:33:53;;;;;;;15.02;9.02;;;14.00;91.10;;;;;;5052859;28;20025;-46
2023/10/01 03:36:32;;;;;;;14.98;10.20;;;14.00;91.10;;;;;;5053143;28;20493;-47
2023/10/01 03:39:25;;;;;;;15.05;11.25;;;14.00;91.00;;;;;;5024632;28;20053;-47
2023/10/01 03:45:25;;;;;;;15.90;10.80;;;14.00;90.90;;;;;;4950620;28;3364420;-48
2023/10/01 03:48:00;;;;;;;19.02;10.52;;;14.00;91.00;;;;;;5073752;28;20116;-47
2023/10/01 03:50:31;;;;;;;16.33;10.20;;;14.00;91.00;;;;;;5074258;28;20020;-47
2023/10/01 03:53:00;;;;;;;13.05;9.65;;;14.00;91.00;;;;;;5073481;28;20083;-50
2023/10/01 03:55:27;;;;;;;14.07;10.27;;;14.00;91.00;;;;;;5073990;28;20028;-46
2023/10/01 04:00:53;;;;;;;13.52;10.63;;;14.10;91.10;;;;;;5075210;28;20117;-49
2023/10/01 04:03:21;;;;;;;17.70;11.30;;;14.10;91.00;;;;;;5073968;28;20099;-49
2023/10/01 04:05:48;;;;;;;15.60;11.85;;;14.10;91.10;;;;;;5039139;28;20037;-51
2023/10/01 04:08:17;;;;;;;20.15;11.00;;;14.10;91.10;;;;;;5073836;28;20035;-48
2023/10/01 04:10:58;;;;;;;18.95;10.88;;;14.10;91.10;;;;;;5073729;28;20032;-47
2023/10/01 04:13:27;;;;;;;21.30;12.52;;;14.10;91.10;;;;;;5058370;28;20063;-51
2023/10/01 04:15:56;;;;;;;14.77;11.90;;;14.10;91.10;;;;;;5073608;28;20530;-48
2023/10/01 04:18:28;;;;;;;19.33;12.20;;;14.10;91.20;;;;;;5073550;28;20028;-46
2023/10/01 04:23:32;;;;;;;17.77;12.20;;;14.00;91.20;;;;;;5074155;28;20043;-52
2023/10/01 04:26:06;;;;;;;18.95;13.80;;;14.00;91.30;;;;;;5056674;28;20086;-50
2023/10/01 04:28:36;;;;;;;19.95;11.75;;;14.00;91.40;;;;;;5073582;28;20035;-51
2023/10/01 04:31:09;;;;;;;20.50;13.65;;;14.00;91.40;;;;;;5073419;28;20055;-50
2023/10/01 04:33:44;;;;;;;17.48;13.35;;;14.00;91.40;;;;;;5054060;28;20060;-50
2023/10/01 04:36:16;;;;;;;21.70;13.43;;;14.10;91.50;;;;;;5071790;28;20120;-49
2023/10/01 04:38:44;;;;;;;25.35;13.80;;;14.00;91.40;;;;;;5073356;28;20033;-47
2023/10/01 04:41:16;;;;;;;18.80;12.43;;;14.10;91.40;;;;;;5073633;28;20038;-50
2023/10/01 04:43:55;;;;;;;18.95;12.70;;;14.00;91.30;;;;;;5052401;28;20122;-49
2023/10/01 04:46:29;;;;;;;19.13;13.00;;;14.00;91.40;;;;;;5051902;28;20035;-53
2023/10/01 04:48:58;;;;;;;21.20;13.07;;;14.00;91.30;;;;;;5041147;28;20469;-50
2023/10/01 04:51:44;;;;;;;21.42;14.02;;;14.00;91.40;;;;;;5068682;28;20446;-47
2023/10/01 04:54:21;;;;;;;19.95;14.20;;;14.00;91.40;;;;;;5053674;28;20017;-47
2023/10/01 04:56:49;;;;;;;19.55;12.02;;;14.00;91.40;;;;;;5053199;28;20033;-48
2023/10/01 04:59:16;;;;;;;22.00;13.73;;;14.00;91.40;;;;;;5035201;28;20496;-47
2023/10/01 05:01:44;;;;;;;19.05;13.48;;;14.10;91.60;;;;;;5053131;28;20051;-47
2023/10/01 05:04:14;;;;;;;19.67;13.43;;;14.10;91.40;;;;;;5052788;28;20033;-48
2023/10/01 05:06:43;;;;;;;21.88;13.63;;;14.00;91.30;;;;;;5053024;28;20033;-50
2023/10/01 05:09:14;;;;;;;19.42;13.50;;;14.00;91.30;;;;;;5053113;28;20803;-50
2023/10/01 05:11:43;;;;;;;24.90;12.93;;;14.00;91.30;;;;;;5057828;28;20449;-49
2023/10/01 05:14:12;;;;;;;20.67;14.27;;;14.00;91.40;;;;;;5052976;28;20095;-48
2023/10/01 05:16:49;;;;;;;21.10;13.63;;;14.00;91.30;;;;;;5052765;28;20033;-48
2023/10/01 05:19:19;;;;;;;21.77;15.07;;;14.10;91.30;;;;;;5052624;28;20100;-49
2023/10/01 05:21:50;;;;;;;;;;;14.00;91.20;;;;;;5053443;28;20075;-52
2023/10/01 05:24:40;;;;;;;19.73;13.93;;;14.00;91.20;;;;;;5051545;28;19916;-49
2023/10/01 05:27:18;;;;;;;;;;;14.00;91.20;;;;;;5053202;28;20025;-48
2023/10/01 05:29:50;;;;;;;16.52;13.88;;;14.10;91.20;;;;;;5052847;28;19913;-49
2023/10/01 05:32:18;;;;;;;17.08;13.63;;;14.10;91.30;;;;;;5052521;28;20033;-48
2023/10/01 05:34:47;;;;;;;21.30;14.23;;;14.10;91.20;;;;;;5052826;28;20040;-49
2023/10/01 05:37:26;;;;;;;22.52;13.43;;;14.10;91.20;;;;;;5052434;28;20203;-49
2023/10/01 05:39:55;;;;;;;17.83;15.27;;;14.10;91.20;;;;;;5051676;28;20056;-51
2023/10/01 05:42:31;;;;;;;22.45;15.10;;;14.10;91.10;;;;;;5052790;28;20040;-51
2023/10/01 05:45:00;;;;;;;17.98;14.38;;;14.00;91.20;;;;;;5068600;28;20061;-48
2023/10/01 05:47:50;;;;;;;21.83;15.75;;;14.00;91.30;;;;;;5072355;28;20035;-49
2023/10/01 05:50:18;;;;;;;22.08;14.25;;;14.10;91.30;;;;;;5092650;28;20031;-50
2023/10/01 05:52:47;;;;;;;22.50;14.30;;;14.00;91.20;;;;;;5092395;28;20028;-49
2023/10/01 05:55:17;;;;;;;18.80;13.57;;;14.10;91.20;;;;;;5074760;28;20362;-49
2023/10/01 05:57:42;;;;;;;;;;;14.10;91.20;;;;;;5088871;28;20438;-53
2023/10/01 06:00:26;;;;;;;21.08;13.32;;;14.10;91.20;;;;;;5072415;28;19957;-48
2023/10/01 06:03:02;;;;;;;21.48;15.02;;;14.10;91.10;;;;;;5072371;28;20119;-51
2023/10/01 06:08:17;;;;;;;20.20;13.68;;;14.10;91.10;;;;;;5072279;28;20354;-52
2023/10/01 06:11:07;;;;;;;21.65;13.20;;;14.10;91.20;;;;;;5071983;28;20021;-48
2023/10/01 06:13:48;;;;;;;16.55;13.98;;;14.10;91.10;;;;;;5071689;28;20056;-49
2023/10/01 06:16:28;;;;;;;16.05;14.35;;;14.10;91.00;;;;;;5072142;28;20442;-48
2023/10/01 06:19:01;;;;;;;20.48;14.77;;;14.20;90.90;;;;;;5072430;28;20075;-51
2023/10/01 06:21:47;;;;;;;17.67;14.70;;;14.20;90.90;;;;;;5072130;28;20056;-47
2023/10/01 06:24:15;;;;;;;20.45;15.63;;;14.20;90.80;;;;;;5072708;28;20040;-50
2023/10/01 06:26:50;;;;;;;22.10;14.40;;;14.20;90.80;;;;;;5054435;28;20539;-49
2023/10/01 06:29:17;;;;;;;18.08;15.48;;;14.30;90.90;;;;;;5072585;28;20041;-49
2023/10/01 06:34:26;;;;;;;15.98;13.93;;;14.30;90.60;;;;;;5075350;28;20349;-51
2023/10/01 06:37:12;;;;;;;16.88;14.18;;;14.40;90.60;;;;;;5076167;28;20040;-51
2023/10/01 06:39:41;;;;;;;16.80;13.95;;;14.40;90.60;;;;;;5076065;28;20121;-50
2023/10/01 06:42:23;;;;;;;23.38;14.25;;;14.40;90.40;;;;;;5058657;28;20442;-48
2023/10/01 06:44:55;;;;;;;19.20;14.63;;;14.40;90.40;;;;;;5075277;28;20048;-51
2023/10/01 06:47:28;;;;;;;19.77;15.18;;;14.40;90.30;;;;;;5072383;28;20240;-50
2023/10/01 06:52:45;;;;;;;18.48;14.13;;;14.40;90.00;;;;;;5095586;28;20054;-48
2023/10/01 06:55:25;;;;;;;20.70;13.30;;;14.40;90.10;;;;;;5095888;28;20337;-48
2023/10/01 06:58:06;;;;;;;16.00;13.10;;;14.50;89.90;;;;;;5063119;28;20033;-50
2023/10/01 07:00:41;;;;;;;17.58;14.02;;;14.50;89.80;;;;;;5076036;28;20426;-50
2023/10/01 07:03:22;;;;;;;18.90;13.05;;;14.50;89.90;;;;;;5075145;28;20031;-49
2023/10/01 07:05:56;;;;;;;18.77;13.00;;;14.70;89.90;;;;;;5075080;28;20025;-50
2023/10/01 07:08:37;;;;;;;21.27;13.10;;;14.80;89.20;;;;;;5074965;28;20450;-50
2023/10/01 07:11:11;;;;;;;17.60;12.75;;;14.90;89.30;;;;;;5075261;28;20059;-50
2023/10/01 07:13:43;;;;;;;15.68;13.35;;;15.20;89.10;;;;;;5058752;28;20029;-50
2023/10/01 07:16:17;;;;;;;19.33;12.98;;;15.40;88.40;;;;;;5058445;28;20353;-52
2023/10/01 07:18:45;;;;;;;19.02;12.73;;;15.40;88.10;;;;;;5057500;28;20632;-50
2023/10/01 07:21:11;;;;;;;16.30;11.50;;;15.50;87.60;;;;;;5074706;28;20033;-52
2023/10/01 07:23:42;;;;;;;18.98;12.40;;;15.40;87.20;;;;;;5074822;28;20035;-49
2023/10/01 07:26:12;;;;;;;20.58;11.35;;;15.40;87.00;;;;;;5075168;28;20523;-48
2023/10/01 07:28:41;;;;;;;20.27;13.52;;;15.40;87.30;;;;;;5074997;28;20028;-46
2023/10/01 07:31:13;;;;;;;18.00;12.23;;;15.30;87.80;;;;;;5074959;28;20032;-46
2023/10/01 07:33:42;;;;;;;15.18;11.10;;;15.30;88.50;;;;;;5074738;28;20024;-45
2023/10/01 07:36:11;;;;;;;14.90;11.07;;;15.20;89.10;;;;;;5074691;28;20035;-46
2023/10/01 07:38:48;;;;;;;18.83;11.70;;;15.10;89.20;;;;;;5075215;28;20033;-47
2023/10/01 07:41:25;;;;;;;18.27;11.68;;;15.10;89.70;;;;;;5073059;28;20027;-46
2023/10/01 07:43:55;;;;;;;16.25;11.02;;;15.10;89.90;;;;;;5073553;28;20045;-49
2023/10/01 07:46:21;;;;;;;20.73;11.50;;;15.10;90.20;;;;;;5074306;28;20115;-46
2023/10/01 07:48:51;;;;;;;16.80;10.93;;;15.20;90.30;;;;;;5074766;28;20091;-46
2023/10/01 07:51:35;;;;;;;17.50;11.55;;;15.20;90.30;;;;;;5074696;28;20040;-46
2023/10/01 07:54:09;;;;;;;14.70;10.55;;;15.10;90.30;;;;;;5074255;28;20026;-47
2023/10/01 07:56:59;;;;;;;20.23;11.98;;;15.10;90.20;;;;;;5074040;28;20048;-44
2023/10/01 07:59:34;;;;;;;19.40;11.73;;;15.00;90.30;;;;;;5073646;28;20111;-46
2023/10/01 08:05:08;;;;;;;21.23;12.50;;;15.00;90.60;;;;;;5074165;28;20090;-51
2023/10/01 08:07:45;;;;;;;16.90;11.88;;;15.00;90.70;;;;;;5074063;28;20356;-49
2023/10/01 08:10:17;;;;;;;19.52;13.07;;;15.00;90.90;;;;;;5056156;28;20509;-48
2023/10/01 08:21:20;;;;;;;19.65;12.10;;;15.10;91.00;;;;;;5064632;28;20044;-50
2023/10/01 08:23:48;;;;;;;18.15;11.43;;;15.10;91.00;;;;;;5056484;28;20163;-47
2023/10/01 08:29:04;;;;;;;19.10;12.50;;;15.10;90.90;;;;;;5058994;28;20056;-50
2023/10/01 08:34:22;;;;;;;21.02;12.30;;;15.20;91.20;;;;;;5074204;28;20369;-45
2023/10/01 08:36:57;;;;;;;16.00;10.25;;;15.30;91.20;;;;;;5073675;28;20029;-45
2023/10/01 08:39:35;;;;;;;20.15;12.45;;;15.30;91.20;;;;;;5056110;28;20044;-46
2023/10/01 08:42:12;;;;;;;15.93;11.65;;;15.30;91.10;;;;;;5057351;28;20476;-48
2023/10/01 08:45:12;;;;;;;21.27;11.82;;;15.30;91.10;;;;;;5073498;28;20059;-44
2023/10/01 08:47:39;;;;;;;15.82;11.45;;;15.40;91.40;;;;;;5057593;28;20553;-45
2023/10/01 08:53:10;;;;;;;13.70;11.38;;;15.40;91.70;;;;;;5060602;28;20052;-47
2023/10/01 09:00:53;;;;;;;17.85;12.23;;;15.30;91.80;;;;;;5073755;28;20140;-45
2023/10/01 09:03:34;;;;;;;17.92;13.60;;;15.30;92.10;;;;;;5072856;28;20085;-46
2023/10/01 09:06:24;;;;;;;16.15;12.73;;;15.30;92.10;;;;;;5058055;28;20040;-46
2023/10/01 09:08:55;;;;;;;16.45;13.10;;;15.30;92.10;;;;;;5072860;28;20472;-47
2023/10/01 09:11:53;;;;;;;20.15;14.57;;;15.20;92.30;;;;;;5073463;28;20037;-50
2023/10/01 09:14:41;;;;;;;16.45;14.52;;;15.40;92.60;;;;;;5073303;28;20055;-48
2023/10/01 09:17:24;;;;;;;18.40;13.27;;;15.50;92.70;;;;;;5039847;28;20434;-45
2023/10/01 09:19:57;;;;;;;20.13;15.48;;;15.60;92.50;;;;;;5056654;28;20032;-49
2023/10/01 09:22:42;;;;;;;19.33;13.05;;;15.60;92.20;;;;;;5055406;28;20037;-47
2023/10/01 09:25:41;;;;;;;16.90;12.65;;;15.60;92.50;;;;;;5058337;28;20094;-49
2023/10/01 09:28:29;;;;;;;18.20;14.05;;;15.60;92.40;;;;;;5055038;28;20032;-51
2023/10/01 09:34:31;;;;;;;22.23;14.32;;;15.50;92.10;;;;;;5029963;28;20042;-48
2023/10/01 09:37:35;;;;;;;16.42;13.32;;;15.60;92.30;;;;;;5029923;28;20037;-49
2023/10/01 09:43:04;;;;;;;23.25;13.38;;;15.70;92.30;;;;;;5017985;28;20061;-45
2023/10/01 09:45:39;;;;;;;17.20;13.38;;;15.80;92.30;;;;;;5030065;28;20057;-50
2023/10/01 09:48:34;;;;;;;21.20;14.02;;;15.90;92.10;;;;;;5029973;28;20141;-46
2023/10/01 09:51:14;;;;;;;25.17;13.15;;;16.00;92.10;;;;;;4991006;28;20022;-48
2023/10/01 09:53:51;;;;;;;20.52;12.90;;;16.10;92.10;;;;;;4984723;28;20448;-49
2023/10/01 09:59:19;;;;;;;22.40;12.65;;;16.30;91.40;;;;;;4981069;28;20046;-51
2023/10/01 10:01:47;;;;;;;19.58;13.18;;;16.20;90.80;;;;;;4990699;28;20042;-49
2023/10/01 10:04:20;;;;;;;24.35;13.65;;;16.10;91.00;;;;;;5012330;28;20037;-49
2023/10/01 10:07:07;;;;;;;22.10;12.93;;;16.00;91.10;;;;;;5034040;28;20022;-47
2023/10/01 10:09:37;;;;;;;20.10;12.63;;;16.00;91.30;;;;;;5076360;28;20055;-52
2023/10/01 10:12:07;;;;;;;25.48;15.95;;;15.90;91.60;;;;;;5063328;28;20021;-49
2023/10/01 10:14:39;;;;;;;21.80;15.00;;;15.90;91.90;;;;;;5056479;28;20334;-51
2023/10/01 10:23:16;;;;;;;24.58;14.27;;;15.90;92.30;;;;;;5051705;28;20448;-49
2023/10/01 10:25:45;;;;;;;20.23;15.27;;;15.90;92.40;;;;;;5036004;28;20025;-47
2023/10/01 10:28:29;;;;;;;21.90;14.70;;;16.00;92.60;;;;;;5036205;28;20036;-51
2023/10/01 10:31:44;;;;;;;19.58;15.30;;;15.90;92.60;;;;;;5059048;28;20047;-48
2023/10/01 10:34:36;;;;;;;19.92;15.85;;;15.90;92.70;;;;;;5075743;28;20037;-47
2023/10/01 10:37:07;;;;;;;25.17;15.45;;;15.90;92.80;;;;;;5058841;28;20033;-47
2023/10/01 10:40:13;;;;;;;19.10;15.50;;;15.90;92.90;;;;;;5055802;28;20032;-48
2023/10/01 10:43:04;;;;;;;19.10;15.25;;;16.00;93.00;;;;;;5056273;28;20480;-48
2023/10/01 10:45:48;;;;;;;24.88;15.38;;;16.00;93.10;;;;;;5094189;28;20058;-50
2023/10/01 10:48:16;;;;;;;22.17;14.73;;;16.00;93.00;;;;;;5087018;28;20472;-52
2023/10/01 10:50:53;;;;;;;22.92;16.65;;;15.90;93.10;;;;;;5057894;28;20094;-46
2023/10/01 10:53:37;;;;;;;23.02;16.48;;;16.00;93.30;;;;;;5075525;28;20028;-50
2023/10/01 10:56:10;;;;;;;25.42;17.38;;;16.00;93.30;;;;;;5075197;28;20411;-49
2023/10/01 10:58:39;;;;;;;23.30;15.93;;;16.00;93.40;;;;;;5058611;28;20041;-48
2023/10/01 11:01:23;;;;;;;25.05;15.90;;;16.00;93.50;;;;;;5079153;28;20027;-46
2023/10/01 11:04:11;;;;;;;22.95;16.10;;;16.10;93.70;;;;;;5079210;28;20687;-48
2023/10/01 11:06:47;;;;;;;26.15;17.13;;;16.10;93.70;;;;;;5095245;28;20099;-47
2023/10/01 11:09:27;;;;;;;31.30;17.75;;;16.10;93.70;;;;;;5079500;28;20024;-49
2023/10/01 11:12:21;;;;;;;27.17;18.20;;;16.10;93.70;;;;;;5060868;28;20476;-52
2023/10/01 11:15:19;;;;;;;26.30;17.02;;;16.10;93.60;;;;;;5074443;28;20040;-47
2023/10/01 11:17:47;;;;;;;21.13;16.02;;;16.20;93.60;;;;;;5074441;28;20036;-47
2023/10/01 11:20:25;;;;;;;19.92;14.80;;;16.20;93.40;;;;;;5074782;28;20028;-51
2023/10/01 11:22:56;;;;;;;20.05;16.17;;;16.40;93.80;;;;;;5074043;28;20020;-51
2023/10/01 11:25:23;;;;;;;25.30;15.70;;;16.40;93.50;;;;;;5073905;28;20119;-48
2023/10/01 11:28:04;;;;;;;20.17;15.15;;;16.60;93.30;;;;;;5056445;28;20032;-51
2023/10/01 11:30:42;;;;;;;19.52;14.23;;;16.70;93.10;;;;;;5074661;28;20033;-49
2023/10/01 11:33:13;;;;;;;23.27;14.38;;;16.90;92.80;;;;;;5073980;28;20024;-50
2023/10/01 11:35:59;;;;;;;19.98;13.68;;;16.90;92.40;;;;;;5074767;28;20024;-53
2023/10/01 11:38:27;;;;;;;20.25;14.32;;;16.90;92.10;;;;;;5073878;28;20024;-50
2023/10/01 11:41:13;;;;;;;26.05;14.10;;;17.10;92.00;;;;;;5056979;28;20120;-53
2023/10/01 11:44:03;;;;;;;25.50;13.20;;;17.20;92.10;;;;;;5073261;28;20461;-49
2023/10/01 11:46:39;;;;;;;18.83;12.45;;;17.30;91.50;;;;;;5072952;28;20052;-51
2023/10/01 11:49:28;;;;;;;18.60;12.53;;;17.40;91.20;;;;;;5059683;28;20094;-53
2023/10/01 11:52:01;;;;;;;18.88;12.65;;;17.40;90.50;;;;;;5074115;28;20025;-49
2023/10/01 11:54:53;;;;;;;19.15;13.88;;;17.50;90.50;;;;;;5074097;28;20028;-54
2023/10/01 11:57:27;;;;;;;19.33;12.20;;;17.60;90.30;;;;;;5059297;28;20111;-52
2023/10/01 12:00:18;;;;;;;16.42;12.45;;;17.70;90.40;;;;;;5057282;28;20132;-52
2023/10/01 12:02:57;;;;;;;18.27;11.88;;;17.70;89.90;;;;;;5074651;28;20035;-49
2023/10/01 12:05:38;;;;;;;20.90;12.55;;;17.70;90.00;;;;;;5074737;28;20039;-52
2023/10/01 12:08:18;;;;;;;19.23;12.27;;;17.80;89.80;;;;;;5074261;28;20036;-49
2023/10/01 12:10:51;;;;;;;15.40;10.77;;;17.80;89.70;;;;;;5073946;28;20071;-49
2023/10/01 12:13:21;;;;;;;17.60;11.57;;;17.80;89.60;;;;;;5074605;28;20059;-52
2023/10/01 12:15:52;;;;;;;22.05;11.75;;;17.70;89.40;;;;;;5073904;28;20037;-51
2023/10/01 12:18:19;;;;;;;19.77;12.80;;;17.80;89.30;;;;;;5048677;28;20032;-54
2023/10/01 12:20:55;;;;;;;18.48;12.35;;;17.70;89.20;;;;;;5093053;28;20024;-52
2023/10/01 12:23:22;;;;;;;18.83;11.38;;;17.60;89.20;;;;;;5077204;28;20052;-50
2023/10/01 12:28:34;;;;;;;20.75;13.65;;;17.60;89.50;;;;;;5073496;28;20024;-51
2023/10/01 12:31:08;;;;;;;19.40;12.02;;;17.60;89.60;;;;;;5064883;28;20523;-55
2023/10/01 12:33:40;;;;;;;21.75;13.23;;;17.60;89.70;;;;;;5093930;28;20390;-51
2023/10/01 12:36:32;;;;;;;16.20;11.50;;;17.80;89.60;;;;;;5086751;28;20028;-52
2023/10/01 12:42:04;;;;;;;22.30;13.55;;;17.90;89.20;;;;;;5073603;28;20620;-51
2023/10/01 12:44:34;;;;;;;16.67;10.52;;;17.90;89.10;;;;;;5072996;28;20052;-51
2023/10/01 12:47:02;;;;;;;;;;;18.00;88.60;;;;;;5073698;28;20442;-49
2023/10/01 12:49:33;;;;;;;16.05;9.60;;;18.10;88.70;;;;;;5073466;28;19916;-50
2023/10/01 12:52:03;;;;;;;20.65;12.15;;;18.10;88.60;;;;;;5073022;28;20097;-48
2023/10/01 12:54:36;;;;;;;19.52;10.95;;;18.20;88.10;;;;;;5073069;28;20108;-50
2023/10/01 12:57:23;;;;;;;19.08;11.77;;;18.10;88.10;;;;;;5073016;28;20476;-51
2023/10/01 13:03:09;;;;;;;19.85;10.82;;;18.10;88.30;;;;;;5060730;28;20493;-51
2023/10/01 13:05:43;;;;;;;24.13;11.98;;;18.10;88.20;;;;;;5073506;28;20032;-52
2023/10/01 13:08:13;;;;;;;20.42;10.68;;;18.10;88.20;;;;;;5073026;28;20033;-50
2023/10/01 13:10:50;;;;;;;19.52;12.45;;;18.20;88.40;;;;;;5073349;28;20048;-51
2023/10/01 13:13:20;;;;;;;21.98;12.00;;;18.20;88.20;;;;;;5072862;28;20112;-53
2023/10/01 13:15:54;;;;;;;20.17;11.93;;;18.20;88.20;;;;;;5072982;28;20090;-51
2023/10/01 13:18:28;;;;;;;19.00;11.10;;;18.30;87.70;;;;;;5057140;28;20094;-52
2023/10/01 13:23:41;;;;;;;18.55;11.57;;;18.40;87.60;;;;;;5072945;28;20029;-52
2023/10/01 13:26:31;;;;;;;18.02;11.65;;;18.40;87.60;;;;;;5072973;28;20052;-49
2023/10/01 13:29:28;;;;;;;17.70;11.38;;;18.40;87.40;;;;;;5072870;28;20038;-52
2023/10/01 13:32:02;;;;;;;20.20;11.68;;;18.40;87.40;;;;;;5072411;28;20034;-49
2023/10/01 13:34:54;;;;;;;21.33;12.35;;;18.40;87.30;;;;;;5072784;28;20033;-50
2023/10/01 14:08:42;;;;;;;17.80;11.70;;;18.30;87.70;;;;;;5044985;28;20771;-49
2023/10/01 14:10:38;;;;;;;18.02;11.38;;;18.00;89.50;;;;;;5076274;28;20119;-50
2023/10/01 14:13:06;;;;;;;17.92;10.02;;;18.00;89.60;;;;;;5076092;28;20035;-52
2023/10/01 14:15:33;;;;;;;18.38;9.85;;;18.00;89.50;;;;;;5076589;28;20453;-51
2023/10/01 14:18:00;;;;;;;21.23;9.68;;;18.00;89.60;;;;;;5075817;28;20052;-53
2023/10/01 14:23:40;;;;;;;25.25;10.77;;;18.10;89.00;;;;;;5075947;28;20085;-52
2023/10/01 14:26:27;;;;;;;18.50;9.40;;;18.10;88.80;;;;;;5063058;28;20075;-52
2023/10/01 14:29:05;;;;;;;16.55;9.18;;;18.20;88.30;;;;;;5076077;28;20419;-51
2023/10/01 14:31:48;;;;;;;21.98;11.88;;;18.10;88.20;;;;;;5074952;28;20044;-53
2023/10/01 14:34:24;;;;;;;18.45;8.80;;;18.20;88.00;;;;;;5075876;28;20031;-50
2023/10/01 14:37:00;;;;;;;17.80;9.05;;;18.20;88.10;;;;;;5075665;28;20043;-50
2023/10/01 14:39:32;;;;;;;16.73;9.30;;;18.30;88.30;;;;;;5076521;28;20043;-52
2023/10/01 14:41:58;;;;;;;14.73;8.43;;;18.30;88.50;;;;;;5075761;28;20104;-48
2023/10/01 14:44:27;;;;;;;17.42;9.95;;;18.30;88.70;;;;;;5075198;28;20477;-50
2023/10/01 14:46:57;;;;;;;16.88;10.13;;;18.30;88.50;;;;;;5075436;28;20032;-48
2023/10/01 14:49:23;;;;;;;17.75;9.82;;;18.30;88.60;;;;;;5076172;28;20051;-53
2023/10/01 14:51:53;;;;;;;15.45;9.63;;;18.30;88.70;;;;;;5074632;28;20028;-51
2023/10/01 14:54:21;;;;;;;14.23;8.77;;;18.30;88.20;;;;;;5075689;28;20113;-52
2023/10/01 14:56:58;;;;;;;15.77;9.80;;;18.20;88.40;;;;;;5057800;28;20050;-51
2023/10/01 14:59:30;;;;;;;17.98;10.20;;;18.20;88.40;;;;;;5075341;28;20044;-49
2023/10/01 15:01:58;;;;;;;19.70;10.18;;;18.20;88.40;;;;;;5075063;28;20032;-50
2023/10/01 15:04:35;;;;;;;16.33;9.57;;;18.20;88.40;;;;;;5075020;28;20047;-53
2023/10/01 15:07:05;;;;;;;18.98;9.60;;;18.20;88.40;;;;;;5074893;28;20028;-53
2023/10/01 15:09:34;;;;;;;17.98;10.00;;;18.20;88.30;;;;;;5075568;28;20031;-53
2023/10/01 15:12:02;;;;;;;16.67;10.23;;;18.20;88.30;;;;;;5075206;28;20628;-49
2023/10/01 15:14:39;;;;;;;14.73;9.95;;;18.30;88.20;;;;;;5057350;28;20107;-48
2023/10/01 15:17:07;;;;;;;13.10;8.85;;;18.30;88.30;;;;;;5074731;28;20024;-49